sensor_id;sensor_type;location;lat;lon;timestamp;temperature;humidity
52903;DHT22;38765;53.176;7.090;2022-07-22T00:01:44;16.00;99.90
52903;DHT22;38765;53.176;7.090;2022-07-22T00:04:21;16.00;99.90
52903;DHT22;38765;53.176;7.090;2022-07-22T00:06:50;15.90;99.90
52903;DHT22;38765;53.176;7.090;2022-07-22T00:09:20;16.00;99.90
52903;DHT22;38765;53.176;7.090;2022-07-22T00:12:14;16.70;99.90
52903;DHT22;38765;53.176;7.090;2022-07-22T00:15:01;15.90;99.90
52903;DHT22;38765;53.176;7.090;2022-07-22T00:17:44;16.00;99.90
52903;DHT22;38765;53.176;7.090;2022-07-22T00:23:35;15.50;99.90
52903;DHT22;38765;53.176;7.090;2022-07-22T00:26:06;15.90;99.90
52903;DHT22;38765;53.176;7.090;2022-07-22T00:28:41;15.90;99.90
52903;DHT22;38765;53.176;7.090;2022-07-22T00:31:10;15.90;99.90
52903;DHT22;38765;53.176;7.090;2022-07-22T00:33:47;15.90;99.90
52903;DHT22;38765;53.176;7.090;2022-07-22T00:39:12;15.80;99.90
52903;DHT22;38765;53.176;7.090;2022-07-22T00:41:41;15.80;99.90
52903;DHT22;38765;53.176;7.090;2022-07-22T00:44:23;15.70;99.90
52903;DHT22;38765;53.176;7.090;2022-07-22T00:46:59;15.70;99.90
52903;DHT22;38765;53.176;7.090;2022-07-22T00:49:30;15.70;99.90
52903;DHT22;38765;53.176;7.090;2022-07-22T00:52:06;15.60;99.90
52903;DHT22;38765;53.176;7.090;2022-07-22T00:54:52;15.70;99.90
52903;DHT22;38765;53.176;7.090;2022-07-22T00:57:25;15.20;99.90
52903;DHT22;38765;53.176;7.090;2022-07-22T00:59:54;15.70;99.90
52903;DHT22;38765;53.176;7.090;2022-07-22T01:02:22;15.70;99.90
52903;DHT22;38765;53.176;7.090;2022-07-22T01:05:05;15.70;99.90
52903;DHT22;38765;53.176;7.090;2022-07-22T01:07:39;15.70;99.90
52903;DHT22;38765;53.176;7.090;2022-07-22T01:10:25;15.20;99.90
52903;DHT22;38765;53.176;7.090;2022-07-22T01:12:54;15.70;99.90
52903;DHT22;38765;53.176;7.090;2022-07-22T01:15:22;15.30;99.90
52903;DHT22;38765;53.176;7.090;2022-07-22T01:18:01;15.70;99.90
52903;DHT22;38765;53.176;7.090;2022-07-22T01:20:39;15.80;99.90
52903;DHT22;38765;53.176;7.090;2022-07-22T01:23:11;15.50;99.90
52903;DHT22;38765;53.176;7.090;2022-07-22T01:25:43;15.80;99.90
52903;DHT22;38765;53.176;7.090;2022-07-22T01:28:16;15.80;99.90
52903;DHT22;38765;53.176;7.090;2022-07-22T01:30:44;15.80;99.90
52903;DHT22;38765;53.176;7.090;2022-07-22T01:33:18;15.50;99.90
52903;DHT22;38765;53.176;7.090;2022-07-22T01:35:55;15.30;99.90
52903;DHT22;38765;53.176;7.090;2022-07-22T01:38:26;15.50;99.90
52903;DHT22;38765;53.176;7.090;2022-07-22T01:40:51;15.90;99.90
52903;DHT22;38765;53.176;7.090;2022-07-22T01:43:26;15.90;99.90
52903;DHT22;38765;53.176;7.090;2022-07-22T01:45:52;15.90;99.90
52903;DHT22;38765;53.176;7.090;2022-07-22T01:48:23;15.90;99.90
52903;DHT22;38765;53.176;7.090;2022-07-22T01:51:17;15.90;99.90
52903;DHT22;38765;53.176;7.090;2022-07-22T01:53:50;16.00;99.90
52903;DHT22;38765;53.176;7.090;2022-07-22T01:56:21;15.60;99.90
52903;DHT22;38765;53.176;7.090;2022-07-22T01:58:49;16.00;99.90
52903;DHT22;38765;53.176;7.090;2022-07-22T02:01:35;16.00;99.90
52903;DHT22;38765;53.176;7.090;2022-07-22T02:04:11;16.00;99.90
52903;DHT22;38765;53.176;7.090;2022-07-22T02:06:43;15.90;99.90
52903;DHT22;38765;53.176;7.090;2022-07-22T02:09:17;15.90;99.90
52903;DHT22;38765;53.176;7.090;2022-07-22T02:11:48;15.90;99.90
52903;DHT22;38765;53.176;7.090;2022-07-22T02:14:16;16.10;99.90
52903;DHT22;38765;53.176;7.090;2022-07-22T02:16:46;15.90;99.90
52903;DHT22;38765;53.176;7.090;2022-07-22T02:19:22;15.90;99.90
52903;DHT22;38765;53.176;7.090;2022-07-22T02:22:03;15.90;99.90
52903;DHT22;38765;53.176;7.090;2022-07-22T02:24:39;15.90;99.90
52903;DHT22;38765;53.176;7.090;2022-07-22T02:27:12;15.90;99.90
52903;DHT22;38765;53.176;7.090;2022-07-22T02:29:40;15.90;99.90
52903;DHT22;38765;53.176;7.090;2022-07-22T02:32:15;15.90;99.90
52903;DHT22;38765;53.176;7.090;2022-07-22T02:34:51;15.90;99.90
52903;DHT22;38765;53.176;7.090;2022-07-22T02:37:22;16.00;99.90
52903;DHT22;38765;53.176;7.090;2022-07-22T02:39:50;15.90;99.90
52903;DHT22;38765;53.176;7.090;2022-07-22T02:42:16;15.90;99.90
52903;DHT22;38765;53.176;7.090;2022-07-22T02:44:45;15.80;99.90
52903;DHT22;38765;53.176;7.090;2022-07-22T02:47:16;15.90;99.90
52903;DHT22;38765;53.176;7.090;2022-07-22T02:49:52;15.90;99.90
52903;DHT22;38765;53.176;7.090;2022-07-22T02:52:20;15.70;99.90
52903;DHT22;38765;53.176;7.090;2022-07-22T02:54:48;15.80;99.90
52903;DHT22;38765;53.176;7.090;2022-07-22T02:57:16;15.80;99.90
52903;DHT22;38765;53.176;7.090;2022-07-22T02:59:48;15.80;99.90
52903;DHT22;38765;53.176;7.090;2022-07-22T03:02:24;15.80;99.90
52903;DHT22;38765;53.176;7.090;2022-07-22T03:05:00;15.80;99.90
52903;DHT22;38765;53.176;7.090;2022-07-22T03:07:32;15.90;99.90
52903;DHT22;38765;53.176;7.090;2022-07-22T03:10:00;16.00;99.90
52903;DHT22;38765;53.176;7.090;2022-07-22T03:12:52;15.90;99.90
52903;DHT22;38765;53.176;7.090;2022-07-22T03:15:20;15.90;99.90
52903;DHT22;38765;53.176;7.090;2022-07-22T03:17:52;15.80;99.90
52903;DHT22;38765;53.176;7.090;2022-07-22T03:20:22;15.80;99.90
52903;DHT22;38765;53.176;7.090;2022-07-22T03:22:48;15.70;99.90
52903;DHT22;38765;53.176;7.090;2022-07-22T03:25:14;15.80;99.90
52903;DHT22;38765;53.176;7.090;2022-07-22T03:27:42;15.80;99.90
52903;DHT22;38765;53.176;7.090;2022-07-22T03:30:10;15.80;99.90
52903;DHT22;38765;53.176;7.090;2022-07-22T03:32:38;15.80;99.90
52903;DHT22;38765;53.176;7.090;2022-07-22T03:35:17;15.70;99.90
52903;DHT22;38765;53.176;7.090;2022-07-22T03:37:55;15.80;99.90
52903;DHT22;38765;53.176;7.090;2022-07-22T03:40:21;15.40;99.90
52903;DHT22;38765;53.176;7.090;2022-07-22T03:42:57;15.80;99.90
52903;DHT22;38765;53.176;7.090;2022-07-22T03:45:27;15.80;99.90
52903;DHT22;38765;53.176;7.090;2022-07-22T03:47:58;15.80;99.90
52903;DHT22;38765;53.176;7.090;2022-07-22T03:50:26;15.70;99.90
52903;DHT22;38765;53.176;7.090;2022-07-22T03:53:08;15.70;99.90
52903;DHT22;38765;53.176;7.090;2022-07-22T03:55:34;15.70;99.90
52903;DHT22;38765;53.176;7.090;2022-07-22T03:58:00;15.30;99.90
52903;DHT22;38765;53.176;7.090;2022-07-22T04:00:33;15.70;99.90
52903;DHT22;38765;53.176;7.090;2022-07-22T04:03:11;15.70;99.90
52903;DHT22;38765;53.176;7.090;2022-07-22T04:06:01;15.70;99.90
52903;DHT22;38765;53.176;7.090;2022-07-22T04:08:35;15.70;99.90
52903;DHT22;38765;53.176;7.090;2022-07-22T04:11:17;15.70;99.90
52903;DHT22;38765;53.176;7.090;2022-07-22T04:13:51;15.70;99.90
52903;DHT22;38765;53.176;7.090;2022-07-22T04:16:34;15.70;99.90
52903;DHT22;38765;53.176;7.090;2022-07-22T04:19:21;15.70;99.90
52903;DHT22;38765;53.176;7.090;2022-07-22T04:22:02;15.70;99.90
52903;DHT22;38765;53.176;7.090;2022-07-22T04:24:30;15.90;99.90
52903;DHT22;38765;53.176;7.090;2022-07-22T04:27:07;15.40;99.90
52903;DHT22;38765;53.176;7.090;2022-07-22T04:29:33;15.80;99.90
52903;DHT22;38765;53.176;7.090;2022-07-22T04:32:01;15.80;99.90
52903;DHT22;38765;53.176;7.090;2022-07-22T04:34:29;15.80;99.90
52903;DHT22;38765;53.176;7.090;2022-07-22T04:36:55;15.80;99.90
52903;DHT22;38765;53.176;7.090;2022-07-22T04:39:25;15.80;99.90
52903;DHT22;38765;53.176;7.090;2022-07-22T04:41:54;15.70;99.90
52903;DHT22;38765;53.176;7.090;2022-07-22T04:44:22;15.80;99.90
52903;DHT22;38765;53.176;7.090;2022-07-22T04:46:50;15.70;99.90
52903;DHT22;38765;53.176;7.090;2022-07-22T04:49:23;15.70;99.90
52903;DHT22;38765;53.176;7.090;2022-07-22T04:51:52;15.70;99.90
52903;DHT22;38765;53.176;7.090;2022-07-22T04:54:20;15.80;99.90
52903;DHT22;38765;53.176;7.090;2022-07-22T04:56:49;15.80;99.90
52903;DHT22;38765;53.176;7.090;2022-07-22T04:59:23;15.80;99.90
52903;DHT22;38765;53.176;7.090;2022-07-22T05:01:49;15.80;99.90
52903;DHT22;38765;53.176;7.090;2022-07-22T05:04:15;15.90;99.90
52903;DHT22;38765;53.176;7.090;2022-07-22T05:06:52;15.90;99.90
52903;DHT22;38765;53.176;7.090;2022-07-22T05:09:46;15.90;99.90
52903;DHT22;38765;53.176;7.090;2022-07-22T05:12:17;15.80;99.90
52903;DHT22;38765;53.176;7.090;2022-07-22T05:14:48;15.90;99.90
52903;DHT22;38765;53.176;7.090;2022-07-22T05:17:19;15.60;99.90
52903;DHT22;38765;53.176;7.090;2022-07-22T05:19:50;15.50;99.90
52903;DHT22;38765;53.176;7.090;2022-07-22T05:22:16;15.50;99.90
52903;DHT22;38765;53.176;7.090;2022-07-22T05:25:27;16.00;99.90
52903;DHT22;38765;53.176;7.090;2022-07-22T05:28:00;16.00;99.90
52903;DHT22;38765;53.176;7.090;2022-07-22T05:30:36;15.80;99.90
52903;DHT22;38765;53.176;7.090;2022-07-22T05:33:04;15.90;99.90
52903;DHT22;38765;53.176;7.090;2022-07-22T05:35:40;16.40;99.90
52903;DHT22;38765;53.176;7.090;2022-07-22T05:38:18;16.00;99.90
52903;DHT22;38765;53.176;7.090;2022-07-22T05:41:02;16.00;99.90
52903;DHT22;38765;53.176;7.090;2022-07-22T05:43:36;15.90;99.90
52903;DHT22;38765;53.176;7.090;2022-07-22T05:46:31;16.70;99.90
52903;DHT22;38765;53.176;7.090;2022-07-22T05:49:19;16.10;99.90
52903;DHT22;38765;53.176;7.090;2022-07-22T05:51:52;16.10;99.90
52903;DHT22;38765;53.176;7.090;2022-07-22T05:54:23;16.10;99.90
52903;DHT22;38765;53.176;7.090;2022-07-22T05:57:08;15.70;99.90
52903;DHT22;38765;53.176;7.090;2022-07-22T05:59:42;16.10;99.90
52903;DHT22;38765;53.176;7.090;2022-07-22T06:02:10;16.10;99.90
52903;DHT22;38765;53.176;7.090;2022-07-22T06:04:46;16.10;99.90
52903;DHT22;38765;53.176;7.090;2022-07-22T06:07:12;16.10;99.90
52903;DHT22;38765;53.176;7.090;2022-07-22T06:13:30;16.20;99.90
52903;DHT22;38765;53.176;7.090;2022-07-22T06:15:58;16.20;99.90
52903;DHT22;38765;53.176;7.090;2022-07-22T06:18:26;16.30;99.90
52903;DHT22;38765;53.176;7.090;2022-07-22T06:21:15;16.30;99.90
52903;DHT22;38765;53.176;7.090;2022-07-22T06:23:41;16.30;99.90
52903;DHT22;38765;53.176;7.090;2022-07-22T06:26:07;16.30;99.90
52903;DHT22;38765;53.176;7.090;2022-07-22T06:28:44;16.30;99.90
52903;DHT22;38765;53.176;7.090;2022-07-22T06:31:14;16.20;99.90
52903;DHT22;38765;53.176;7.090;2022-07-22T06:34:00;16.50;99.90
52903;DHT22;38765;53.176;7.090;2022-07-22T06:36:36;16.20;99.90
52903;DHT22;38765;53.176;7.090;2022-07-22T06:39:02;16.20;99.90
52903;DHT22;38765;53.176;7.090;2022-07-22T06:41:30;16.20;99.90
52903;DHT22;38765;53.176;7.090;2022-07-22T06:46:40;16.30;99.90
52903;DHT22;38765;53.176;7.090;2022-07-22T06:49:15;16.30;99.90
52903;DHT22;38765;53.176;7.090;2022-07-22T06:51:41;16.40;99.90
52903;DHT22;38765;53.176;7.090;2022-07-22T06:54:09;16.40;99.90
52903;DHT22;38765;53.176;7.090;2022-07-22T06:56:38;16.40;99.90
52903;DHT22;38765;53.176;7.090;2022-07-22T06:59:03;16.40;99.90
52903;DHT22;38765;53.176;7.090;2022-07-22T07:01:41;16.50;99.90
52903;DHT22;38765;53.176;7.090;2022-07-22T07:07:51;16.50;99.90
52903;DHT22;38765;53.176;7.090;2022-07-22T07:10:17;16.50;99.90
52903;DHT22;38765;53.176;7.090;2022-07-22T07:12:48;16.50;99.90
52903;DHT22;38765;53.176;7.090;2022-07-22T07:15:21;16.50;99.90
52903;DHT22;38765;53.176;7.090;2022-07-22T07:17:47;16.50;99.90
52903;DHT22;38765;53.176;7.090;2022-07-22T07:20:12;16.00;99.90
52903;DHT22;38765;53.176;7.090;2022-07-22T07:22:38;16.70;99.90
52903;DHT22;38765;53.176;7.090;2022-07-22T07:25:07;16.70;99.90
52903;DHT22;38765;53.176;7.090;2022-07-22T07:27:36;16.80;99.90
52903;DHT22;38765;53.176;7.090;2022-07-22T07:30:05;16.80;99.90
52903;DHT22;38765;53.176;7.090;2022-07-22T07:32:54;16.90;99.90
52903;DHT22;38765;53.176;7.090;2022-07-22T07:41:49;16.80;99.90
52903;DHT22;38765;53.176;7.090;2022-07-22T07:44:24;16.80;99.90
52903;DHT22;38765;53.176;7.090;2022-07-22T07:46:53;16.90;99.90
52903;DHT22;38765;53.176;7.090;2022-07-22T07:49:21;16.90;99.90
52903;DHT22;38765;53.176;7.090;2022-07-22T07:51:46;17.20;99.90
52903;DHT22;38765;53.176;7.090;2022-07-22T07:54:12;17.20;99.90
52903;DHT22;38765;53.176;7.090;2022-07-22T07:56:38;17.30;99.90
52903;DHT22;38765;53.176;7.090;2022-07-22T07:59:06;17.30;99.90
52903;DHT22;38765;53.176;7.090;2022-07-22T08:01:31;17.30;99.90
52903;DHT22;38765;53.176;7.090;2022-07-22T08:03:57;17.30;99.90
52903;DHT22;38765;53.176;7.090;2022-07-22T08:06:22;17.30;99.90
52903;DHT22;38765;53.176;7.090;2022-07-22T08:08:48;17.40;99.90
52903;DHT22;38765;53.176;7.090;2022-07-22T08:11:22;17.40;99.90
52903;DHT22;38765;53.176;7.090;2022-07-22T08:13:48;17.50;99.90
52903;DHT22;38765;53.176;7.090;2022-07-22T08:51:00;17.30;99.90
52903;DHT22;38765;53.176;7.090;2022-07-22T08:53:25;17.30;99.90
52903;DHT22;38765;53.176;7.090;2022-07-22T08:55:51;17.40;99.90
52903;DHT22;38765;53.176;7.090;2022-07-22T08:58:16;17.50;99.90
52903;DHT22;38765;53.176;7.090;2022-07-22T09:01:07;17.50;99.90
52903;DHT22;38765;53.176;7.090;2022-07-22T09:19:01;17.60;99.90
52903;DHT22;38765;53.176;7.090;2022-07-22T09:21:28;17.60;99.90
52903;DHT22;38765;53.176;7.090;2022-07-22T09:23:54;17.60;99.90
52903;DHT22;38765;53.176;7.090;2022-07-22T09:26:32;17.50;99.90
52903;DHT22;38765;53.176;7.090;2022-07-22T09:29:00;17.50;99.90
52903;DHT22;38765;53.176;7.090;2022-07-22T09:31:27;17.50;99.90
52903;DHT22;38765;53.176;7.090;2022-07-22T09:33:54;17.60;99.90
52903;DHT22;38765;53.176;7.090;2022-07-22T09:36:20;17.60;99.90
52903;DHT22;38765;53.176;7.090;2022-07-22T09:38:45;17.70;99.90
52903;DHT22;38765;53.176;7.090;2022-07-22T09:41:11;17.70;99.90
52903;DHT22;38765;53.176;7.090;2022-07-22T09:43:38;17.70;99.90
52903;DHT22;38765;53.176;7.090;2022-07-22T09:46:03;17.70;99.90
52903;DHT22;38765;53.176;7.090;2022-07-22T09:48:30;17.80;99.90
52903;DHT22;38765;53.176;7.090;2022-07-22T09:50:55;17.80;99.90
52903;DHT22;38765;53.176;7.090;2022-07-22T09:53:23;17.80;99.90
52903;DHT22;38765;53.176;7.090;2022-07-22T09:55:48;17.80;99.90
52903;DHT22;38765;53.176;7.090;2022-07-22T09:58:14;17.80;99.90
52903;DHT22;38765;53.176;7.090;2022-07-22T10:00:41;17.80;99.90
52903;DHT22;38765;53.176;7.090;2022-07-22T10:03:07;17.70;99.90
52903;DHT22;38765;53.176;7.090;2022-07-22T10:05:35;17.80;99.90
52903;DHT22;38765;53.176;7.090;2022-07-22T10:08:02;17.80;99.90
52903;DHT22;38765;53.176;7.090;2022-07-22T10:10:28;17.80;99.90
52903;DHT22;38765;53.176;7.090;2022-07-22T10:12:55;17.60;99.90
52903;DHT22;38765;53.176;7.090;2022-07-22T10:15:24;17.80;99.90
52903;DHT22;38765;53.176;7.090;2022-07-22T10:17:57;17.70;99.90
52903;DHT22;38765;53.176;7.090;2022-07-22T10:20:24;17.70;99.90
52903;DHT22;38765;53.176;7.090;2022-07-22T10:23:00;17.60;99.90
52903;DHT22;38765;53.176;7.090;2022-07-22T10:25:27;17.60;99.90
52903;DHT22;38765;53.176;7.090;2022-07-22T10:27:56;17.20;99.90
52903;DHT22;38765;53.176;7.090;2022-07-22T10:30:38;17.70;99.90
52903;DHT22;38765;53.176;7.090;2022-07-22T10:35:31;17.70;99.90
52903;DHT22;38765;53.176;7.090;2022-07-22T10:37:59;17.70;99.90
52903;DHT22;38765;53.176;7.090;2022-07-22T10:40:26;17.80;99.90
52903;DHT22;38765;53.176;7.090;2022-07-22T10:45:33;17.70;99.90
52903;DHT22;38765;53.176;7.090;2022-07-22T10:48:03;17.70;99.90
52903;DHT22;38765;53.176;7.090;2022-07-22T10:50:38;17.40;99.90
52903;DHT22;38765;53.176;7.090;2022-07-22T10:53:17;17.70;99.90
52903;DHT22;38765;53.176;7.090;2022-07-22T10:56:26;17.80;99.90
52903;DHT22;38765;53.176;7.090;2022-07-22T11:01:06;17.70;99.90
52903;DHT22;38765;53.176;7.090;2022-07-22T11:03:35;18.10;99.90
52903;DHT22;38765;53.176;7.090;2022-07-22T11:06:17;18.30;99.90
52903;DHT22;38765;53.176;7.090;2022-07-22T11:08:46;18.40;99.90
52903;DHT22;38765;53.176;7.090;2022-07-22T11:32:07;18.80;99.90
52903;DHT22;38765;53.176;7.090;2022-07-22T11:40:33;18.70;99.90
52903;DHT22;38765;53.176;7.090;2022-07-22T11:43:01;18.70;99.90
52903;DHT22;38765;53.176;7.090;2022-07-22T11:45:27;18.70;99.90
52903;DHT22;38765;53.176;7.090;2022-07-22T13:18:53;19.60;99.90
52903;DHT22;38765;53.176;7.090;2022-07-22T13:21:19;18.90;99.90
52903;DHT22;38765;53.176;7.090;2022-07-22T13:23:55;18.80;99.90
52903;DHT22;38765;53.176;7.090;2022-07-22T13:26:21;18.70;99.90
52903;DHT22;38765;53.176;7.090;2022-07-22T13:28:49;18.70;99.90
52903;DHT22;38765;53.176;7.090;2022-07-22T13:49:39;18.50;99.90
52903;DHT22;38765;53.176;7.090;2022-07-22T13:52:20;18.40;99.90
52903;DHT22;38765;53.176;7.090;2022-07-22T13:55:02;18.50;99.90
52903;DHT22;38765;53.176;7.090;2022-07-22T14:28:40;18.80;99.90
52903;DHT22;38765;53.176;7.090;2022-07-22T14:31:08;18.90;99.90
52903;DHT22;38765;53.176;7.090;2022-07-22T14:33:34;19.00;99.90
52903;DHT22;38765;53.176;7.090;2022-07-22T14:36:23;19.00;99.90
52903;DHT22;38765;53.176;7.090;2022-07-22T14:38:50;19.00;99.90
52903;DHT22;38765;53.176;7.090;2022-07-22T14:41:18;19.10;99.90
52903;DHT22;38765;53.176;7.090;2022-07-22T14:43:54;19.10;99.90
52903;DHT22;38765;53.176;7.090;2022-07-22T14:46:23;19.10;99.90
52903;DHT22;38765;53.176;7.090;2022-07-22T14:48:59;19.00;99.90
52903;DHT22;38765;53.176;7.090;2022-07-22T14:51:43;18.90;99.90
52903;DHT22;38765;53.176;7.090;2022-07-22T14:54:17;18.70;99.90
52903;DHT22;38765;53.176;7.090;2022-07-22T14:56:59;18.60;99.90
52903;DHT22;38765;53.176;7.090;2022-07-22T14:59:28;18.90;99.90
52903;DHT22;38765;53.176;7.090;2022-07-22T15:01:56;18.80;99.90
52903;DHT22;38765;53.176;7.090;2022-07-22T15:07:33;18.90;99.90
52903;DHT22;38765;53.176;7.090;2022-07-22T15:10:23;18.60;99.90
52903;DHT22;38765;53.176;7.090;2022-07-22T15:12:54;18.80;99.90
52903;DHT22;38765;53.176;7.090;2022-07-22T15:15:26;18.70;99.90
52903;DHT22;38765;53.176;7.090;2022-07-22T15:17:56;18.70;99.90
52903;DHT22;38765;53.176;7.090;2022-07-22T15:53:48;18.30;99.90
52903;DHT22;38765;53.176;7.090;2022-07-22T16:44:36;17.70;99.90
52903;DHT22;38765;53.176;7.090;2022-07-22T16:47:25;17.70;99.90
52903;DHT22;38765;53.176;7.090;2022-07-22T16:52:39;17.70;99.90
52903;DHT22;38765;53.176;7.090;2022-07-22T16:55:04;17.60;99.90
52903;DHT22;38765;53.176;7.090;2022-07-22T16:57:33;17.70;99.90
52903;DHT22;38765;53.176;7.090;2022-07-22T16:59:59;17.70;99.90
52903;DHT22;38765;53.176;7.090;2022-07-22T17:02:24;17.60;99.90
52903;DHT22;38765;53.176;7.090;2022-07-22T17:04:52;17.70;99.90
52903;DHT22;38765;53.176;7.090;2022-07-22T17:07:21;17.70;99.90
52903;DHT22;38765;53.176;7.090;2022-07-22T17:09:47;17.60;99.90
52903;DHT22;38765;53.176;7.090;2022-07-22T17:12:34;18.00;99.90
52903;DHT22;38765;53.176;7.090;2022-07-22T17:15:08;17.60;99.90
52903;DHT22;38765;53.176;7.090;2022-07-22T17:17:34;17.70;99.90
52903;DHT22;38765;53.176;7.090;2022-07-22T17:20:02;17.60;99.90
52903;DHT22;38765;53.176;7.090;2022-07-22T17:22:28;17.60;99.90
52903;DHT22;38765;53.176;7.090;2022-07-22T17:24:56;17.60;99.90
52903;DHT22;38765;53.176;7.090;2022-07-22T17:27:34;17.60;99.90
52903;DHT22;38765;53.176;7.090;2022-07-22T17:30:20;17.40;99.90
52903;DHT22;38765;53.176;7.090;2022-07-22T17:32:49;17.80;99.90
52903;DHT22;38765;53.176;7.090;2022-07-22T17:35:17;17.60;99.90
52903;DHT22;38765;53.176;7.090;2022-07-22T17:37:46;17.60;99.90
52903;DHT22;38765;53.176;7.090;2022-07-22T17:40:12;17.60;99.90
52903;DHT22;38765;53.176;7.090;2022-07-22T17:42:40;17.60;99.90
52903;DHT22;38765;53.176;7.090;2022-07-22T17:45:38;17.50;99.90
52903;DHT22;38765;53.176;7.090;2022-07-22T17:48:03;17.50;99.90
52903;DHT22;38765;53.176;7.090;2022-07-22T17:50:38;17.50;99.90
52903;DHT22;38765;53.176;7.090;2022-07-22T17:53:10;17.70;99.90
52903;DHT22;38765;53.176;7.090;2022-07-22T17:55:41;17.60;99.90
52903;DHT22;38765;53.176;7.090;2022-07-22T17:58:09;17.60;99.90
52903;DHT22;38765;53.176;7.090;2022-07-22T18:00:35;17.50;99.90
52903;DHT22;38765;53.176;7.090;2022-07-22T18:03:03;17.50;99.90
52903;DHT22;38765;53.176;7.090;2022-07-22T18:05:37;17.50;99.90
52903;DHT22;38765;53.176;7.090;2022-07-22T18:08:03;17.50;99.90
52903;DHT22;38765;53.176;7.090;2022-07-22T18:10:29;17.30;99.90
52903;DHT22;38765;53.176;7.090;2022-07-22T18:12:55;17.50;99.90
52903;DHT22;38765;53.176;7.090;2022-07-22T18:15:32;17.50;99.90
52903;DHT22;38765;53.176;7.090;2022-07-22T18:18:08;17.40;99.90
52903;DHT22;38765;53.176;7.090;2022-07-22T18:20:51;17.70;99.90
52903;DHT22;38765;53.176;7.090;2022-07-22T18:23:20;17.50;99.90
52903;DHT22;38765;53.176;7.090;2022-07-22T18:25:48;17.60;99.90
52903;DHT22;38765;53.176;7.090;2022-07-22T18:28:16;17.30;99.90
52903;DHT22;38765;53.176;7.090;2022-07-22T18:30:45;17.40;99.90
52903;DHT22;38765;53.176;7.090;2022-07-22T18:33:29;17.40;99.90
52903;DHT22;38765;53.176;7.090;2022-07-22T18:36:07;17.30;99.90
52903;DHT22;38765;53.176;7.090;2022-07-22T18:38:42;17.20;99.90
52903;DHT22;38765;53.176;7.090;2022-07-22T18:41:07;17.20;99.90
52903;DHT22;38765;53.176;7.090;2022-07-22T18:43:36;17.20;99.90
52903;DHT22;38765;53.176;7.090;2022-07-22T18:46:04;16.90;99.90
52903;DHT22;38765;53.176;7.090;2022-07-22T18:48:42;17.10;99.90
52903;DHT22;38765;53.176;7.090;2022-07-22T18:51:13;17.10;99.90
52903;DHT22;38765;53.176;7.090;2022-07-22T18:53:47;17.00;99.90
52903;DHT22;38765;53.176;7.090;2022-07-22T18:56:41;17.60;99.90
52903;DHT22;38765;53.176;7.090;2022-07-22T18:59:14;17.00;99.90
52903;DHT22;38765;53.176;7.090;2022-07-22T19:01:53;16.90;99.90
52903;DHT22;38765;53.176;7.090;2022-07-22T19:04:41;16.90;99.90
52903;DHT22;38765;53.176;7.090;2022-07-22T19:07:17;16.80;99.90
52903;DHT22;38765;53.176;7.090;2022-07-22T19:09:57;16.80;99.90
52903;DHT22;38765;53.176;7.090;2022-07-22T19:13:02;17.40;99.90
52903;DHT22;38765;53.176;7.090;2022-07-22T19:15:55;16.80;99.90
52903;DHT22;38765;53.176;7.090;2022-07-22T19:18:25;16.80;99.90
52903;DHT22;38765;53.176;7.090;2022-07-22T19:23:54;16.80;99.90
52903;DHT22;38765;53.176;7.090;2022-07-22T19:26:22;16.50;99.90
52903;DHT22;38765;53.176;7.090;2022-07-22T19:28:59;16.70;99.90
52903;DHT22;38765;53.176;7.090;2022-07-22T19:31:50;16.70;99.90
52903;DHT22;38765;53.176;7.090;2022-07-22T19:34:18;16.60;99.90
52903;DHT22;38765;53.176;7.090;2022-07-22T19:36:57;16.60;99.90
52903;DHT22;38765;53.176;7.090;2022-07-22T19:39:28;16.60;99.90
52903;DHT22;38765;53.176;7.090;2022-07-22T19:42:06;16.50;99.90
52903;DHT22;38765;53.176;7.090;2022-07-22T19:45:14;16.50;99.90
52903;DHT22;38765;53.176;7.090;2022-07-22T19:47:41;16.50;99.90
52903;DHT22;38765;53.176;7.090;2022-07-22T19:50:34;16.30;99.90
52903;DHT22;38765;53.176;7.090;2022-07-22T19:53:13;16.50;99.90
52903;DHT22;38765;53.176;7.090;2022-07-22T19:55:44;16.60;99.90
52903;DHT22;38765;53.176;7.090;2022-07-22T19:58:25;16.40;99.90
52903;DHT22;38765;53.176;7.090;2022-07-22T20:01:04;16.60;99.90
52903;DHT22;38765;53.176;7.090;2022-07-22T20:03:42;16.60;99.90
52903;DHT22;38765;53.176;7.090;2022-07-22T20:06:14;16.50;99.90
52903;DHT22;38765;53.176;7.090;2022-07-22T20:08:42;16.50;99.90
52903;DHT22;38765;53.176;7.090;2022-07-22T20:11:15;16.50;99.90
52903;DHT22;38765;53.176;7.090;2022-07-22T20:13:49;16.50;99.90
52903;DHT22;38765;53.176;7.090;2022-07-22T20:16:15;16.40;99.90
52903;DHT22;38765;53.176;7.090;2022-07-22T20:18:48;16.40;99.90
52903;DHT22;38765;53.176;7.090;2022-07-22T20:21:17;16.40;99.90
52903;DHT22;38765;53.176;7.090;2022-07-22T20:23:53;16.30;99.90
52903;DHT22;38765;53.176;7.090;2022-07-22T20:26:19;16.10;99.90
52903;DHT22;38765;53.176;7.090;2022-07-22T20:28:47;16.30;99.90
52903;DHT22;38765;53.176;7.090;2022-07-22T20:31:13;16.30;99.90
52903;DHT22;38765;53.176;7.090;2022-07-22T20:34:04;16.20;99.90
52903;DHT22;38765;53.176;7.090;2022-07-22T20:36:53;16.50;99.90
52903;DHT22;38765;53.176;7.090;2022-07-22T20:39:50;16.20;99.90
52903;DHT22;38765;53.176;7.090;2022-07-22T20:42:36;15.90;99.90
52903;DHT22;38765;53.176;7.090;2022-07-22T20:45:02;16.20;99.90
52903;DHT22;38765;53.176;7.090;2022-07-22T20:47:29;16.20;99.90
52903;DHT22;38765;53.176;7.090;2022-07-22T20:49:54;16.20;99.90
52903;DHT22;38765;53.176;7.090;2022-07-22T20:52:21;16.20;99.90
52903;DHT22;38765;53.176;7.090;2022-07-22T20:54:46;16.20;99.90
52903;DHT22;38765;53.176;7.090;2022-07-22T20:57:13;16.10;99.90
52903;DHT22;38765;53.176;7.090;2022-07-22T20:59:38;16.20;99.90
52903;DHT22;38765;53.176;7.090;2022-07-22T21:02:04;15.90;99.90
52903;DHT22;38765;53.176;7.090;2022-07-22T21:04:30;16.20;99.90
52903;DHT22;38765;53.176;7.090;2022-07-22T21:06:58;16.10;99.90
52903;DHT22;38765;53.176;7.090;2022-07-22T21:09:24;16.10;99.90
52903;DHT22;38765;53.176;7.090;2022-07-22T21:11:52;16.10;99.90
52903;DHT22;38765;53.176;7.090;2022-07-22T21:14:22;16.10;99.90
52903;DHT22;38765;53.176;7.090;2022-07-22T21:16:47;16.10;99.90
52903;DHT22;38765;53.176;7.090;2022-07-22T21:19:13;16.10;99.90
52903;DHT22;38765;53.176;7.090;2022-07-22T21:21:39;16.10;99.90
52903;DHT22;38765;53.176;7.090;2022-07-22T21:24:04;16.10;99.90
52903;DHT22;38765;53.176;7.090;2022-07-22T21:26:32;16.10;99.90
52903;DHT22;38765;53.176;7.090;2022-07-22T21:28:58;15.80;99.90
52903;DHT22;38765;53.176;7.090;2022-07-22T21:31:24;16.10;99.90
52903;DHT22;38765;53.176;7.090;2022-07-22T21:33:50;16.10;99.90
52903;DHT22;38765;53.176;7.090;2022-07-22T21:36:32;16.30;99.90
52903;DHT22;38765;53.176;7.090;2022-07-22T21:39:00;16.00;99.90
52903;DHT22;38765;53.176;7.090;2022-07-22T21:41:26;15.90;99.90